Time;durP1;ratioP1;P1;durP2;ratioP2;P2;SDS_P1;SDS_P2;PMS_P1;PMS_P2;Temp;Humidity;BMP_temperature;BMP_pressure;BME280_temperature;BME280_humidity;BME280_pressure;Samples;Min_cycle;Max_cycle;Signal;HPM_P1;HPM_P2
2021/06/23 00:00:24;;;;;;;4.80;3.80;;;14.20;47.10;;;;;;5070163;28;20036;-77
2021/06/23 00:02:50;;;;;;;3.55;3.22;;;14.20;47.20;;;;;;5068540;28;20025;-79
2021/06/23 00:05:17;;;;;;;3.75;3.38;;;14.20;47.20;;;;;;5051568;28;20031;-78
2021/06/23 00:07:44;;;;;;;4.32;3.63;;;14.10;47.10;;;;;;5051520;28;20097;-78
2021/06/23 00:10:11;;;;;;;3.78;3.40;;;14.10;47.20;;;;;;5051664;28;20044;-78
2021/06/23 00:12:38;;;;;;;3.80;3.40;;;14.10;47.30;;;;;;5068041;28;20028;-78
2021/06/23 00:15:05;;;;;;;3.80;3.45;;;14.00;47.20;;;;;;5051475;28;20032;-78
2021/06/23 00:17:31;;;;;;;3.80;3.35;;;14.00;47.30;;;;;;5051469;28;20032;-78
2021/06/23 00:19:57;;;;;;;3.58;3.28;;;14.00;47.40;;;;;;5034699;28;20476;-77
2021/06/23 00:22:23;;;;;;;4.60;3.65;;;14.00;47.40;;;;;;5069584;28;20087;-77
2021/06/23 00:24:52;;;;;;;3.92;3.53;;;13.90;47.30;;;;;;5051207;28;20044;-77
2021/06/23 00:27:18;;;;;;;4.30;3.97;;;13.90;47.40;;;;;;5069010;28;20028;-79
2021/06/23 00:29:44;;;;;;;5.03;3.88;;;13.80;47.30;;;;;;5051660;28;20051;-77
2021/06/23 00:32:19;;;;;;;3.95;3.38;;;13.80;47.40;;;;;;5068439;28;20045;-77
2021/06/23 00:34:45;;;;;;;4.32;3.90;;;13.80;47.60;;;;;;5067332;28;20082;-78
2021/06/23 00:37:11;;;;;;;4.50;3.97;;;13.70;47.40;;;;;;5068342;28;20036;-77
2021/06/23 00:39:37;;;;;;;3.45;3.10;;;13.70;47.50;;;;;;5068844;28;20024;-77
2021/06/23 00:42:04;;;;;;;3.58;3.28;;;13.70;47.60;;;;;;5067401;28;20150;-78
2021/06/23 00:44:31;;;;;;;4.25;3.83;;;13.60;47.50;;;;;;5067785;28;20029;-78
2021/06/23 00:46:57;;;;;;;4.13;3.42;;;13.60;47.60;;;;;;5067803;28;20055;-78
2021/06/23 00:49:25;;;;;;;4.22;3.50;;;13.60;47.70;;;;;;5066581;28;20468;-78
2021/06/23 00:52:08;;;;;;;5.00;3.80;;;13.50;47.60;;;;;;5068850;28;20119;-78
2021/06/23 00:54:51;;;;;;;4.03;3.63;;;13.50;47.60;;;;;;5067451;28;20060;-78
2021/06/23 00:57:21;;;;;;;4.20;3.80;;;13.40;47.50;;;;;;5067426;28;20032;-78
2021/06/23 00:59:51;;;;;;;4.28;3.65;;;13.40;47.60;;;;;;5067248;28;20029;-78
2021/06/23 01:02:19;;;;;;;4.35;3.95;;;13.40;47.60;;;;;;5068322;28;20025;-77
2021/06/23 01:04:47;;;;;;;4.20;3.10;;;13.40;47.70;;;;;;5050082;28;20783;-79
2021/06/23 01:07:17;;;;;;;5.03;3.67;;;13.30;47.60;;;;;;5031006;28;20029;-80
2021/06/23 01:09:47;;;;;;;4.40;3.70;;;13.30;47.70;;;;;;5045347;28;20032;-77
2021/06/23 01:12:25;;;;;;;4.60;4.20;;;13.30;47.70;;;;;;5068241;28;20127;-76
2021/06/23 01:14:58;;;;;;;5.60;3.70;;;13.30;47.90;;;;;;5068643;28;20036;-76
2021/06/23 01:17:29;;;;;;;;;;;13.20;47.70;;;;;;5069141;28;20480;-76
2021/06/23 01:20:06;;;;;;;3.72;3.42;;;13.20;47.60;;;;;;5067013;28;19912;-77
2021/06/23 01:22:36;;;;;;;4.22;3.30;;;13.20;47.70;;;;;;5067370;28;20025;-76
2021/06/23 01:25:04;;;;;;;4.93;3.60;;;13.10;47.50;;;;;;5066898;28;20036;-77
2021/06/23 01:27:30;;;;;;;4.05;3.65;;;13.10;47.60;;;;;;5067132;28;20028;-76
2021/06/23 01:29:57;;;;;;;4.90;3.60;;;13.10;47.70;;;;;;5066568;28;20495;-76
2021/06/23 01:32:41;;;;;;;4.00;3.40;;;13.10;47.80;;;;;;5051503;28;20060;-76
2021/06/23 01:35:09;;;;;;;3.70;3.40;;;13.00;47.70;;;;;;5039752;28;20054;-76
2021/06/23 01:37:36;;;;;;;4.20;3.28;;;13.00;47.80;;;;;;5051365;28;20605;-77
2021/06/23 01:40:04;;;;;;;4.65;4.15;;;13.00;48.00;;;;;;5051180;28;20036;-76
2021/06/23 01:42:32;;;;;;;4.07;3.72;;;12.90;47.80;;;;;;5054091;28;20115;-76
2021/06/23 01:45:00;;;;;;;4.18;3.60;;;12.90;47.90;;;;;;5048718;28;20032;-76
2021/06/23 01:47:27;;;;;;;4.78;3.70;;;12.90;48.00;;;;;;5040518;28;20033;-77
2021/06/23 01:49:53;;;;;;;5.28;4.38;;;12.90;48.10;;;;;;5070758;28;20040;-77
2021/06/23 01:52:21;;;;;;;4.75;3.75;;;12.80;48.00;;;;;;5054371;28;20399;-77
2021/06/23 01:54:50;;;;;;;4.90;3.70;;;12.80;48.00;;;;;;5054827;28;20216;-77
2021/06/23 01:57:16;;;;;;;4.75;4.35;;;12.80;48.20;;;;;;5052977;28;20031;-77
2021/06/23 01:59:47;;;;;;;4.30;3.80;;;12.70;48.60;;;;;;5055111;28;20039;-79
2021/06/23 02:02:34;;;;;;;4.32;3.70;;;12.70;48.10;;;;;;5056015;28;20020;-78
2021/06/23 02:05:14;;;;;;;4.30;3.83;;;12.70;48.10;;;;;;5055174;28;20529;-77
2021/06/23 02:08:07;;;;;;;4.22;3.55;;;12.70;48.30;;;;;;5054662;28;20506;-79
2021/06/23 02:11:11;;;;;;;6.53;4.20;;;12.60;48.10;;;;;;5054899;28;20044;-78
2021/06/23 02:14:36;;;;;;;4.22;3.83;;;12.60;48.20;;;;;;5070179;28;20035;-77
2021/06/23 02:17:17;;;;;;;4.80;3.58;;;12.60;48.20;;;;;;5070792;28;20036;-77
2021/06/23 02:19:52;;;;;;;4.88;3.90;;;12.50;47.90;;;;;;5070818;28;20256;-76
2021/06/23 02:22:32;;;;;;;6.55;4.22;;;12.50;48.00;;;;;;5070329;28;20036;-77
2021/06/23 02:25:12;;;;;;;4.35;3.95;;;12.50;48.30;;;;;;5070778;28;20036;-78
2021/06/23 02:27:52;;;;;;;4.35;3.95;;;12.50;48.30;;;;;;5070449;28;20032;-77
2021/06/23 02:30:19;;;;;;;4.25;3.85;;;12.50;48.20;;;;;;5070594;28;20067;-78
2021/06/23 02:32:58;;;;;;;4.50;3.83;;;12.40;48.10;;;;;;5055163;28;20075;-78
2021/06/23 02:35:37;;;;;;;6.32;4.22;;;12.40;48.20;;;;;;5055471;28;20063;-77
2021/06/23 02:38:11;;;;;;;4.15;3.58;;;12.40;48.30;;;;;;5070284;28;20032;-77
2021/06/23 02:40:38;;;;;;;4.05;3.55;;;12.40;48.30;;;;;;5071483;28;20032;-77
2021/06/23 02:43:07;;;;;;;4.38;3.97;;;12.30;48.20;;;;;;5070346;28;20029;-77
2021/06/23 02:45:33;;;;;;;5.28;4.18;;;12.30;48.30;;;;;;5070376;28;20032;-77
2021/06/23 02:48:00;;;;;;;5.88;4.22;;;12.30;48.40;;;;;;5053431;28;20032;-79
2021/06/23 02:51:02;;;;;;;3.60;3.30;;;12.30;48.40;;;;;;5070564;28;20036;-77
2021/06/23 02:53:31;;;;;;;4.72;4.22;;;12.30;48.60;;;;;;5070454;28;20369;-77
2021/06/23 02:55:58;;;;;;;4.70;4.05;;;12.20;48.30;;;;;;5070038;28;20025;-77
2021/06/23 02:58:26;;;;;;;4.80;4.40;;;12.20;48.40;;;;;;5053910;28;20037;-77
2021/06/23 03:00:53;;;;;;;4.53;3.88;;;12.20;48.50;;;;;;5052972;28;20032;-78
2021/06/23 03:03:24;;;;;;;5.88;4.40;;;12.10;48.40;;;;;;5070494;28;20031;-76
2021/06/23 03:05:52;;;;;;;6.65;4.00;;;12.10;48.40;;;;;;5053919;28;20434;-77
2021/06/23 03:08:19;;;;;;;4.65;3.95;;;12.10;48.50;;;;;;5071126;28;20032;-77
2021/06/23 03:10:47;;;;;;;6.68;3.78;;;12.10;48.50;;;;;;5071438;28;20032;-77
2021/06/23 03:13:51;;;;;;;4.32;3.58;;;12.00;48.40;;;;;;5008758;28;20517;-77
2021/06/23 03:16:24;;;;;;;;;;;12.00;48.60;;;;;;5009333;28;20520;-77
2021/06/23 03:18:51;;;;;;;4.22;3.92;;;12.00;48.30;;;;;;5041417;28;20360;-77
2021/06/23 03:21:17;;;;;;;5.72;3.72;;;12.00;48.20;;;;;;5053154;28;20087;-78
2021/06/23 03:23:48;;;;;;;4.50;4.10;;;12.00;48.40;;;;;;5070886;28;20020;-79
2021/06/23 03:26:17;;;;;;;4.20;3.65;;;11.90;48.30;;;;;;5069763;28;20395;-79
2021/06/23 03:28:44;;;;;;;4.47;4.07;;;11.90;48.40;;;;;;5053025;28;20036;-80
2021/06/23 03:31:10;;;;;;;5.22;4.70;;;11.90;48.50;;;;;;5053136;28;20391;-78
2021/06/23 03:33:40;;;;;;;7.40;4.20;;;11.90;48.50;;;;;;5052802;28;20064;-78
2021/06/23 03:36:20;;;;;;;5.07;4.57;;;11.90;48.60;;;;;;5069999;28;20020;-77
2021/06/23 03:38:49;;;;;;;4.82;4.25;;;11.80;48.50;;;;;;5069523;28;20035;-79
2021/06/23 03:41:15;;;;;;;4.90;4.10;;;11.80;48.50;;;;;;5052629;28;20028;-79
2021/06/23 03:43:43;;;;;;;5.13;4.63;;;11.80;48.60;;;;;;5071242;28;20495;-80
2021/06/23 03:46:09;;;;;;;6.22;4.35;;;11.70;48.40;;;;;;5028201;28;20029;-78
2021/06/23 03:48:36;;;;;;;4.30;3.90;;;11.70;48.50;;;;;;5066056;28;20506;-78
2021/06/23 03:51:05;;;;;;;5.53;4.50;;;11.70;48.60;;;;;;5050920;28;20134;-80
2021/06/23 03:53:31;;;;;;;4.90;4.40;;;11.70;48.70;;;;;;5066254;28;20484;-78
2021/06/23 03:56:01;;;;;;;6.05;4.22;;;11.70;48.70;;;;;;5054517;28;20031;-77
2021/06/23 03:58:29;;;;;;;5.07;4.63;;;11.60;48.60;;;;;;5069813;28;20039;-78
2021/06/23 04:00:58;;;;;;;4.60;3.80;;;11.60;48.60;;;;;;5049086;28;20059;-77
2021/06/23 04:03:47;;;;;;;6.25;4.32;;;11.60;48.70;;;;;;5066126;28;20373;-78
2021/06/23 04:06:31;;;;;;;;;;;11.60;48.70;;;;;;5064019;28;20037;-79
2021/06/23 04:09:01;;;;;;;4.55;4.15;;;11.60;48.60;;;;;;5049143;28;20059;-79
2021/06/23 04:11:27;;;;;;;5.18;4.68;;;11.60;48.50;;;;;;5032933;28;20028;-78
2021/06/23 04:13:55;;;;;;;4.50;4.10;;;11.50;48.50;;;;;;5049416;28;20060;-79
2021/06/23 04:16:21;;;;;;;7.00;4.75;;;11.50;48.50;;;;;;5065977;28;20029;-80
2021/06/23 04:18:48;;;;;;;5.95;5.38;;;11.50;48.60;;;;;;5050544;28;20029;-80
2021/06/23 04:21:14;;;;;;;4.80;4.30;;;11.50;48.70;;;;;;5050559;28;20035;-79
2021/06/23 04:23:42;;;;;;;5.18;4.68;;;11.50;48.70;;;;;;5049195;28;20036;-78
2021/06/23 04:26:08;;;;;;;5.22;4.78;;;11.50;48.80;;;;;;5065971;28;20439;-79
2021/06/23 04:28:34;;;;;;;4.93;4.25;;;11.50;48.80;;;;;;5065778;28;20076;-79
2021/06/23 04:31:01;;;;;;;4.90;4.40;;;11.50;48.90;;;;;;5050125;28;20029;-78
2021/06/23 04:33:27;;;;;;;5.32;4.50;;;11.40;48.80;;;;;;5065788;28;20025;-77
2021/06/23 04:36:03;;;;;;;5.18;4.68;;;11.50;49.00;;;;;;5064518;28;20043;-80
2021/06/23 04:38:29;;;;;;;5.53;4.45;;;11.40;48.80;;;;;;5048847;28;20029;-78
2021/06/23 04:40:55;;;;;;;5.60;4.93;;;11.50;49.00;;;;;;5048825;28;20492;-78
2021/06/23 04:43:22;;;;;;;5.30;4.75;;;11.50;49.00;;;;;;5050104;28;20033;-78
2021/06/23 04:45:50;;;;;;;5.50;4.85;;;11.50;49.10;;;;;;5036771;28;20059;-78
2021/06/23 04:48:18;;;;;;;6.43;5.20;;;11.40;48.90;;;;;;5041400;28;20025;-80
2021/06/23 04:50:45;;;;;;;5.18;4.68;;;11.50;49.10;;;;;;5041278;28;20029;-79
2021/06/23 04:53:17;;;;;;;8.50;4.75;;;11.50;49.20;;;;;;5065122;28;20547;-81
2021/06/23 04:55:44;;;;;;;4.95;4.40;;;11.50;49.70;;;;;;5049191;28;20120;-81
2021/06/23 04:58:15;;;;;;;5.13;4.63;;;11.50;49.20;;;;;;5047495;28;20521;-79
2021/06/23 05:00:43;;;;;;;9.13;5.38;;;11.50;49.20;;;;;;5067067;28;20029;-80
2021/06/23 05:03:16;;;;;;;5.38;4.88;;;11.50;49.20;;;;;;5064018;28;20190;-79
2021/06/23 05:05:42;;;;;;;4.97;4.35;;;11.50;49.20;;;;;;5058972;28;20040;-79
2021/06/23 05:08:08;;;;;;;5.63;5.00;;;11.50;49.30;;;;;;5065148;28;20029;-80
2021/06/23 05:10:34;;;;;;;5.25;4.43;;;11.50;49.30;;;;;;5068072;28;20218;-81
2021/06/23 05:13:00;;;;;;;5.35;4.85;;;11.50;49.30;;;;;;5059693;28;20455;-80
2021/06/23 05:15:27;;;;;;;5.57;4.75;;;11.50;49.30;;;;;;5046789;28;20388;-78
2021/06/23 05:17:54;;;;;;;5.63;5.03;;;11.60;49.50;;;;;;5046409;28;20013;-77
2021/06/23 05:20:22;;;;;;;5.55;5.05;;;11.60;49.50;;;;;;5049074;28;20036;-77
2021/06/23 05:22:49;;;;;;;5.70;5.20;;;11.60;49.50;;;;;;5065686;28;20392;-75
2021/06/23 05:25:17;;;;;;;5.45;4.95;;;11.60;49.50;;;;;;5067314;28;20025;-78
2021/06/23 05:27:43;;;;;;;6.13;5.57;;;11.70;49.70;;;;;;5060383;28;20029;-77
2021/06/23 05:30:10;;;;;;;5.22;4.72;;;11.70;49.70;;;;;;5047486;28;20033;-75
2021/06/23 05:32:36;;;;;;;6.20;5.68;;;11.70;49.70;;;;;;5048399;28;20051;-75
2021/06/23 05:35:03;;;;;;;6.50;5.22;;;11.80;49.90;;;;;;5066794;28;20109;-74
2021/06/23 05:37:29;;;;;;;6.10;5.40;;;11.80;49.90;;;;;;5066830;28;20025;-74
2021/06/23 05:39:55;;;;;;;5.93;5.43;;;11.80;49.90;;;;;;5064887;28;20034;-74
2021/06/23 05:42:21;;;;;;;6.38;5.78;;;11.90;50.00;;;;;;5062945;28;20078;-74
2021/06/23 05:44:47;;;;;;;5.35;4.85;;;11.90;50.00;;;;;;5040313;28;20120;-77
2021/06/23 05:47:13;;;;;;;6.40;5.80;;;12.00;50.20;;;;;;5057027;28;20079;-74
2021/06/23 05:49:39;;;;;;;5.57;5.07;;;12.00;50.30;;;;;;5049882;28;20093;-74
2021/06/23 05:52:06;;;;;;;6.57;5.82;;;12.00;50.30;;;;;;5063822;28;20029;-77
2021/06/23 05:54:32;;;;;;;6.70;5.50;;;12.10;50.50;;;;;;5049404;28;20549;-77
2021/06/23 05:56:58;;;;;;;6.35;5.57;;;12.20;50.60;;;;;;5027870;28;20032;-81
2021/06/23 05:59:26;;;;;;;9.63;7.25;;;12.30;51.00;;;;;;5045310;28;20036;-78
2021/06/23 06:01:52;;;;;;;7.88;7.07;;;12.30;52.00;;;;;;5044661;28;20044;-78
2021/06/23 06:04:18;;;;;;;8.60;7.72;;;12.50;53.20;;;;;;5027901;28;20120;-80
2021/06/23 06:06:45;;;;;;;10.48;7.90;;;12.70;54.40;;;;;;5028266;28;20435;-79
2021/06/23 06:09:11;;;;;;;10.68;7.97;;;12.90;55.40;;;;;;5047710;28;20044;-78
2021/06/23 06:11:37;;;;;;;8.70;7.95;;;13.10;56.30;;;;;;5064102;28;20074;-78
2021/06/23 06:14:03;;;;;;;10.32;9.43;;;13.30;57.20;;;;;;5080906;28;20047;-78
2021/06/23 06:16:29;;;;;;;9.57;8.68;;;13.50;57.80;;;;;;5049251;28;20388;-78
2021/06/23 06:18:56;;;;;;;14.13;9.38;;;13.80;58.60;;;;;;5065744;28;20514;-78
2021/06/23 06:21:23;;;;;;;9.82;8.45;;;14.00;59.20;;;;;;5066173;28;20024;-77
2021/06/23 06:23:49;;;;;;;9.27;8.38;;;14.20;59.70;;;;;;5065485;28;20033;-74
2021/06/23 06:26:15;;;;;;;12.93;9.63;;;14.40;60.10;;;;;;5082165;28;20025;-73
2021/06/23 06:28:41;;;;;;;10.60;9.50;;;14.60;60.40;;;;;;5065115;28;20037;-73
2021/06/23 06:31:07;;;;;;;10.88;9.88;;;14.80;60.70;;;;;;5082163;28;20123;-74
2021/06/23 06:33:34;;;;;;;12.20;10.55;;;15.00;61.10;;;;;;5082546;28;20025;-76
2021/06/23 06:36:00;;;;;;;12.40;11.10;;;15.20;61.40;;;;;;5065965;28;20032;-75
2021/06/23 06:38:26;;;;;;;13.60;11.57;;;15.50;61.80;;;;;;5054690;28;20044;-74
2021/06/23 06:40:52;;;;;;;14.05;12.65;;;15.70;62.10;;;;;;5045685;28;20495;-74
2021/06/23 06:43:18;;;;;;;13.00;11.80;;;15.90;62.30;;;;;;5047171;28;20029;-75
2021/06/23 06:45:49;;;;;;;12.98;11.75;;;16.20;62.50;;;;;;5064792;28;20025;-74
2021/06/23 06:48:20;;;;;;;14.68;13.15;;;16.50;62.70;;;;;;5058199;28;20040;-74
2021/06/23 06:50:46;;;;;;;14.73;13.23;;;16.80;62.70;;;;;;5058192;28;20395;-75
2021/06/23 06:53:12;;;;;;;14.40;12.88;;;17.10;62.70;;;;;;5066576;28;20133;-73
2021/06/23 06:55:38;;;;;;;15.20;13.68;;;17.40;62.70;;;;;;5065439;28;20071;-74
2021/06/23 06:58:04;;;;;;;14.75;13.35;;;17.80;62.90;;;;;;5058409;28;20060;-74
2021/06/23 07:00:30;;;;;;;15.00;13.50;;;18.20;62.90;;;;;;5044928;28;20029;-74
2021/06/23 07:02:57;;;;;;;14.63;13.30;;;18.60;62.80;;;;;;5053928;28;20705;-76
2021/06/23 07:05:24;;;;;;;14.63;13.25;;;19.00;62.70;;;;;;5065337;28;20051;-74
2021/06/23 07:07:50;;;;;;;14.25;12.75;;;19.40;62.50;;;;;;5063999;28;20036;-75
2021/06/23 07:10:17;;;;;;;13.65;12.40;;;19.80;62.30;;;;;;5064749;28;20040;-74
2021/06/23 07:12:43;;;;;;;13.30;11.98;;;20.10;61.70;;;;;;5048386;28;20039;-74
2021/06/23 07:15:09;;;;;;;19.80;12.38;;;20.50;61.40;;;;;;5064738;28;20365;-74
2021/06/23 07:17:35;;;;;;;14.38;11.20;;;20.80;60.80;;;;;;5064747;28;20119;-75
2021/06/23 07:20:03;;;;;;;12.32;11.10;;;21.20;60.40;;;;;;5066271;28;20238;-76
2021/06/23 07:22:30;;;;;;;15.23;11.98;;;21.60;60.00;;;;;;5066791;28;20039;-76
2021/06/23 07:24:56;;;;;;;12.30;11.18;;;21.90;59.60;;;;;;5047795;28;20033;-75
2021/06/23 07:27:22;;;;;;;11.43;10.38;;;22.20;59.00;;;;;;5064539;28;20093;-75
2021/06/23 07:29:50;;;;;;;11.93;10.80;;;22.50;58.50;;;;;;5064813;28;20041;-74
2021/06/23 07:32:28;;;;;;;12.60;11.07;;;22.80;58.00;;;;;;5064536;28;20129;-76
2021/06/23 07:37:39;;;;;;;14.32;10.32;;;23.50;57.20;;;;;;5064704;28;20104;-76
2021/06/23 07:40:06;;;;;;;11.43;10.25;;;23.90;57.10;;;;;;5064399;28;20123;-75
2021/06/23 07:42:32;;;;;;;10.23;9.20;;;24.20;56.50;;;;;;5064473;28;20032;-76
2021/06/23 07:45:00;;;;;;;11.20;10.13;;;24.50;56.10;;;;;;5064538;28;20029;-76
2021/06/23 07:47:31;;;;;;;11.07;10.00;;;24.80;55.50;;;;;;5066237;28;20529;-76
2021/06/23 07:49:58;;;;;;;10.77;9.77;;;25.10;55.00;;;;;;5066043;28;20131;-75
2021/06/23 07:55:12;;;;;;;9.93;8.93;;;25.60;53.60;;;;;;5066384;28;20483;-76
2021/06/23 08:11:17;;;;;;;8.15;7.30;;;27.50;49.60;;;;;;5064741;28;20403;-77
2021/06/23 08:13:44;;;;;;;10.10;9.05;;;27.90;48.80;;;;;;5062990;28;20021;-78
2021/06/23 08:16:10;;;;;;;9.80;8.90;;;28.30;47.20;;;;;;5063480;28;20120;-76
2021/06/23 08:18:36;;;;;;;9.45;8.55;;;28.50;46.00;;;;;;5067052;28;20025;-76
2021/06/23 08:21:02;;;;;;;8.98;8.20;;;28.60;45.00;;;;;;5068265;28;20028;-76
2021/06/23 08:23:28;;;;;;;9.75;8.80;;;28.70;44.20;;;;;;5069528;28;20063;-76
2021/06/23 08:25:54;;;;;;;8.70;7.80;;;28.80;43.50;;;;;;5067585;28;20561;-77
2021/06/23 08:28:21;;;;;;;9.68;8.52;;;28.90;42.90;;;;;;5069389;28;20028;-76
2021/06/23 08:30:47;;;;;;;8.90;7.65;;;29.10;42.20;;;;;;5067680;28;20034;-75
2021/06/23 08:33:13;;;;;;;10.25;8.48;;;29.30;41.60;;;;;;5068771;28;20702;-75
2021/06/23 08:35:39;;;;;;;9.45;8.45;;;29.40;40.90;;;;;;5067712;28;20040;-76
2021/06/23 08:38:06;;;;;;;9.68;8.43;;;29.50;40.30;;;;;;5064033;28;20049;-75
2021/06/23 08:40:33;;;;;;;13.00;8.57;;;29.70;39.80;;;;;;5053675;28;20028;-75
2021/06/23 08:42:59;;;;;;;11.77;8.98;;;29.80;39.30;;;;;;5055505;28;20024;-75
2021/06/23 08:45:26;;;;;;;8.70;7.90;;;29.90;38.70;;;;;;5084299;28;20032;-76
2021/06/23 08:47:52;;;;;;;11.20;8.00;;;30.00;38.50;;;;;;5050880;28;20111;-76
2021/06/23 08:50:23;;;;;;;9.20;8.27;;;30.00;38.00;;;;;;5050841;28;20047;-78
2021/06/23 08:52:49;;;;;;;9.30;8.30;;;30.10;37.60;;;;;;5067371;28;20032;-77
2021/06/23 08:55:19;;;;;;;8.38;7.40;;;30.10;37.30;;;;;;5067506;28;20393;-76
2021/06/23 08:57:50;;;;;;;7.82;7.10;;;30.00;37.00;;;;;;5068579;28;20024;-77
2021/06/23 09:00:17;;;;;;;8.50;7.63;;;29.90;36.60;;;;;;5050868;28;20434;-77
2021/06/23 09:02:45;;;;;;;12.57;8.13;;;29.70;36.50;;;;;;5067100;28;20059;-75
2021/06/23 09:05:13;;;;;;;9.13;7.72;;;29.50;36.30;;;;;;5067647;28;20028;-76
2021/06/23 09:07:40;;;;;;;8.32;7.10;;;29.30;36.40;;;;;;5067319;28;20047;-76
2021/06/23 09:10:28;;;;;;;9.18;8.25;;;28.90;37.00;;;;;;5068296;28;20632;-76
2021/06/23 09:13:01;;;;;;;11.32;7.45;;;28.30;37.50;;;;;;5053491;28;20044;-75
2021/06/23 09:16:00;;;;;;;10.77;8.65;;;27.80;38.10;;;;;;5068530;28;20024;-79
2021/06/23 09:18:35;;;;;;;9.05;8.20;;;27.50;38.80;;;;;;5067104;28;20483;-79
2021/06/23 09:21:11;;;;;;;11.27;8.32;;;27.30;38.90;;;;;;5067248;28;20035;-75
2021/06/23 09:23:39;;;;;;;12.05;7.93;;;27.20;39.20;;;;;;5066794;28;20047;-76
2021/06/23 09:26:11;;;;;;;9.63;8.77;;;27.20;39.10;;;;;;5067165;28;20028;-79
2021/06/23 09:28:38;;;;;;;9.25;8.35;;;27.10;38.80;;;;;;5039019;28;20503;-78
2021/06/23 09:31:06;;;;;;;11.27;8.38;;;27.10;38.80;;;;;;5045792;28;20037;-77
2021/06/23 09:33:33;;;;;;;11.02;8.82;;;27.00;38.80;;;;;;5042110;28;20024;-76
2021/06/23 09:36:09;;;;;;;10.38;8.63;;;27.00;38.80;;;;;;5066799;28;20048;-78
2021/06/23 09:38:42;;;;;;;8.77;7.82;;;26.80;38.90;;;;;;5056385;28;20079;-75
2021/06/23 09:41:33;;;;;;;12.27;8.18;;;26.70;39.00;;;;;;5059516;28;20083;-74
2021/06/23 09:44:02;;;;;;;10.13;9.02;;;26.50;39.20;;;;;;5046297;28;20033;-74
2021/06/23 09:46:34;;;;;;;13.23;8.35;;;26.30;39.50;;;;;;5046572;28;20370;-77
2021/06/23 09:49:23;;;;;;;9.18;8.23;;;26.20;39.80;;;;;;5061418;28;20043;-76
2021/06/23 09:51:59;;;;;;;13.82;8.65;;;26.10;40.10;;;;;;5066755;28;20046;-77
2021/06/23 09:54:27;;;;;;;9.98;8.93;;;26.00;40.20;;;;;;5067650;28;20234;-73
2021/06/23 09:57:08;;;;;;;9.88;7.75;;;25.90;40.30;;;;;;5067766;28;20031;-73
2021/06/23 09:59:44;;;;;;;7.40;6.53;;;25.90;40.50;;;;;;5065899;28;20032;-74
2021/06/23 10:02:30;;;;;;;8.48;6.85;;;25.70;40.50;;;;;;5065123;28;20031;-76
2021/06/23 10:04:59;;;;;;;7.35;6.60;;;25.60;40.20;;;;;;5046359;28;20028;-73
2021/06/23 10:07:41;;;;;;;7.82;6.70;;;25.50;40.20;;;;;;5047180;28;20072;-74
2021/06/23 10:10:08;;;;;;;8.35;7.30;;;25.50;39.80;;;;;;5046176;28;20102;-76
2021/06/23 10:12:35;;;;;;;7.63;6.72;;;25.50;40.00;;;;;;5047449;28;20029;-75
2021/06/23 10:15:01;;;;;;;7.13;6.43;;;25.40;39.90;;;;;;5047178;28;20033;-73
2021/06/23 10:17:28;;;;;;;8.32;7.43;;;25.50;39.90;;;;;;5029055;28;20139;-74
2021/06/23 10:19:54;;;;;;;7.00;6.30;;;25.50;40.10;;;;;;5047004;28;20472;-74
2021/06/23 10:22:21;;;;;;;8.95;6.05;;;25.70;40.90;;;;;;5045654;28;20040;-74
2021/06/23 10:24:52;;;;;;;7.85;6.50;;;25.90;40.90;;;;;;5045798;28;20033;-78
2021/06/23 10:27:20;;;;;;;7.13;6.43;;;26.10;40.90;;;;;;5045787;28;20033;-76
2021/06/23 10:29:50;;;;;;;6.50;5.90;;;26.30;40.90;;;;;;5012323;28;20511;-74
2021/06/23 10:32:17;;;;;;;8.45;6.43;;;26.50;40.90;;;;;;5045582;28;20216;-74
2021/06/23 10:34:44;;;;;;;6.72;6.13;;;26.70;40.80;;;;;;5045913;28;20037;-74
2021/06/23 10:37:12;;;;;;;7.63;6.00;;;26.90;40.80;;;;;;5054980;28;20513;-74
2021/06/23 10:39:39;;;;;;;6.88;6.15;;;27.10;40.80;;;;;;5048391;28;20161;-75
2021/06/23 10:42:07;;;;;;;6.43;5.80;;;27.30;40.80;;;;;;5045732;28;20032;-77
2021/06/23 10:44:36;;;;;;;8.60;5.32;;;27.50;40.80;;;;;;5045231;28;20029;-77
2021/06/23 10:47:06;;;;;;;6.30;5.70;;;27.70;40.80;;;;;;5045382;28;20122;-74
2021/06/23 10:49:44;;;;;;;5.45;4.90;;;27.80;40.70;;;;;;5062337;28;20129;-74
2021/06/23 10:52:22;;;;;;;6.00;5.40;;;27.80;40.70;;;;;;5066862;28;20388;-75
2021/06/23 10:54:56;;;;;;;5.93;5.43;;;27.80;40.80;;;;;;5066807;28;20036;-78
2021/06/23 10:57:27;;;;;;;;;;;27.90;40.90;;;;;;5064930;28;20107;-75
2021/06/23 11:00:00;;;;;;;6.03;5.43;;;28.00;41.20;;;;;;5063356;28;20057;-74
2021/06/23 11:02:35;;;;;;;7.40;6.10;;;28.10;41.00;;;;;;5065174;28;20120;-76
2021/06/23 11:05:01;;;;;;;6.32;5.70;;;28.20;41.00;;;;;;5063544;28;20029;-74
2021/06/23 11:07:33;;;;;;;5.97;5.38;;;28.40;41.00;;;;;;5064004;28;20090;-74
2021/06/23 11:10:15;;;;;;;7.90;5.50;;;28.60;41.00;;;;;;5064433;28;20058;-74
2021/06/23 11:12:48;;;;;;;6.50;5.90;;;28.70;40.90;;;;;;5045175;28;20048;-73
2021/06/23 11:15:18;;;;;;;6.03;5.40;;;28.90;41.00;;;;;;5028309;28;20051;-74
2021/06/23 11:17:46;;;;;;;5.50;5.00;;;29.00;40.90;;;;;;5046092;28;20577;-75
2021/06/23 11:20:21;;;;;;;5.53;5.03;;;29.10;40.80;;;;;;5046255;28;20472;-74
2021/06/23 11:22:48;;;;;;;5.72;5.05;;;29.30;40.80;;;;;;5045680;28;20033;-74
2021/06/23 11:25:28;;;;;;;5.95;5.28;;;29.40;40.80;;;;;;5042293;28;20037;-74
2021/06/23 11:28:06;;;;;;;5.65;5.15;;;29.50;40.60;;;;;;5040848;28;20056;-74
2021/06/23 11:30:32;;;;;;;6.30;4.82;;;29.70;40.60;;;;;;5024564;28;20083;-74
2021/06/23 11:33:27;;;;;;;5.72;4.95;;;29.80;40.70;;;;;;5032466;28;20079;-74
2021/06/23 11:36:06;;;;;;;6.13;5.53;;;29.90;40.70;;;;;;5044724;28;20071;-75
2021/06/23 11:38:35;;;;;;;5.88;5.30;;;30.00;40.60;;;;;;5034345;28;20087;-75
2021/06/23 11:41:04;;;;;;;6.03;5.43;;;30.10;40.70;;;;;;5026468;28;20033;-74
2021/06/23 11:43:30;;;;;;;6.05;5.07;;;30.20;40.70;;;;;;5036990;28;20037;-75
2021/06/23 11:45:57;;;;;;;4.90;4.35;;;30.30;40.70;;;;;;5044536;28;20061;-74
2021/06/23 11:48:26;;;;;;;5.10;4.10;;;30.40;40.70;;;;;;5044539;28;20029;-74
2021/06/23 11:50:53;;;;;;;5.32;4.65;;;30.40;40.70;;;;;;5045516;28;20471;-74
2021/06/23 11:53:21;;;;;;;5.72;5.22;;;30.50;40.70;;;;;;5045872;28;20136;-77
2021/06/23 11:55:51;;;;;;;5.53;4.68;;;30.60;40.70;;;;;;5031741;28;20025;-76
2021/06/23 11:58:18;;;;;;;5.75;4.68;;;30.60;40.70;;;;;;5048511;28;20516;-76
2021/06/23 12:00:45;;;;;;;4.57;4.18;;;30.70;40.70;;;;;;5048430;28;20048;-74
2021/06/23 12:03:14;;;;;;;5.15;4.55;;;30.80;40.70;;;;;;5049645;28;20602;-75
2021/06/23 12:05:40;;;;;;;5.55;4.70;;;30.90;40.80;;;;;;5049714;28;20299;-74
2021/06/23 12:08:07;;;;;;;5.07;4.45;;;31.00;40.70;;;;;;5042914;28;20071;-73
2021/06/23 12:10:34;;;;;;;7.65;4.88;;;31.10;40.80;;;;;;5030551;28;20037;-74
2021/06/23 12:13:00;;;;;;;4.93;4.53;;;31.20;40.70;;;;;;5029585;28;20039;-78
2021/06/23 12:15:27;;;;;;;4.78;4.25;;;31.20;40.70;;;;;;5030351;28;20033;-75
2021/06/23 12:18:03;;;;;;;5.07;3.83;;;31.30;40.70;;;;;;5029912;28;20083;-77
2021/06/23 12:20:31;;;;;;;4.97;4.45;;;31.50;40.70;;;;;;5030188;28;20076;-72
2021/06/23 12:22:59;;;;;;;4.97;4.47;;;31.50;40.70;;;;;;5028323;28;20071;-77
2021/06/23 12:25:32;;;;;;;3.70;3.40;;;31.60;40.70;;;;;;5045037;28;20124;-74
2021/06/23 12:27:59;;;;;;;5.00;4.35;;;31.70;40.60;;;;;;5028052;28;20029;-75
2021/06/23 12:30:27;;;;;;;4.60;4.20;;;31.80;40.70;;;;;;5029931;28;20381;-75
2021/06/23 12:32:55;;;;;;;4.40;3.90;;;31.90;40.70;;;;;;5027606;28;20115;-74
2021/06/23 12:35:21;;;;;;;4.60;4.20;;;32.00;40.70;;;;;;5029127;28;20030;-78
2021/06/23 12:37:47;;;;;;;7.10;4.80;;;32.00;40.60;;;;;;5028151;28;20045;-74
2021/06/23 12:40:14;;;;;;;5.20;4.75;;;32.10;40.60;;;;;;5029157;28;20575;-73
2021/06/23 12:42:40;;;;;;;4.80;4.22;;;32.20;40.60;;;;;;5027633;28;20412;-73
2021/06/23 12:45:06;;;;;;;4.13;3.83;;;32.30;40.50;;;;;;5027699;28;20030;-74
2021/06/23 12:47:32;;;;;;;5.53;3.95;;;32.40;40.60;;;;;;5028066;28;20033;-75
2021/06/23 12:49:58;;;;;;;5.00;4.18;;;32.40;40.50;;;;;;5028818;28;20124;-74
2021/06/23 12:52:24;;;;;;;4.07;3.78;;;32.50;40.50;;;;;;5010817;28;20033;-74
2021/06/23 12:54:50;;;;;;;4.55;4.15;;;32.60;40.50;;;;;;5027600;28;20037;-75
2021/06/23 12:57:16;;;;;;;4.93;3.63;;;32.70;40.50;;;;;;5028617;28;20098;-76
2021/06/23 12:59:42;;;;;;;4.75;3.83;;;32.70;40.50;;;;;;5028750;28;20103;-75
2021/06/23 13:02:08;;;;;;;4.65;3.97;;;32.80;40.50;;;;;;5029132;28;20116;-77
2021/06/23 13:04:34;;;;;;;4.15;3.75;;;32.80;40.50;;;;;;5025890;28;20060;-74
2021/06/23 13:07:00;;;;;;;4.50;4.10;;;33.00;40.60;;;;;;5028454;28;20030;-73
2021/06/23 13:09:26;;;;;;;4.70;4.30;;;33.00;40.40;;;;;;5044763;28;20029;-76
2021/06/23 13:11:53;;;;;;;4.38;3.97;;;33.10;40.50;;;;;;5048215;28;20384;-73
2021/06/23 13:14:19;;;;;;;4.25;3.85;;;33.20;40.50;;;;;;5048090;28;20025;-74
2021/06/23 13:16:46;;;;;;;4.32;3.90;;;33.30;40.50;;;;;;5046552;28;20033;-73